Time;durP1;ratioP1;P1;durP2;ratioP2;P2;SDS_P1;SDS_P2;PMS_P1;PMS_P2;Temp;Humidity;BMP_temperature;BMP_pressure;BME280_temperature;BME280_humidity;BME280_pressure;Samples;Min_cycle;Max_cycle;Signal;HPM_P1;HPM_P2
2022/01/04 00:01:22;;;;;;;14.80;6.55;;;8.10;99.90;;;;;;5065852;28;20045;-69
2022/01/04 00:03:48;;;;;;;14.25;6.63;;;8.20;99.90;;;;;;5098463;28;20054;-70
2022/01/04 00:06:16;;;;;;;16.40;6.85;;;8.20;99.90;;;;;;5091443;28;20104;-70
2022/01/04 00:08:42;;;;;;;13.05;6.03;;;8.20;99.90;;;;;;5099574;28;20080;-70
2022/01/04 00:11:19;;;;;;;13.80;5.95;;;8.20;99.90;;;;;;5075947;28;20045;-72
2022/01/04 00:13:46;;;;;;;13.38;6.25;;;8.30;99.90;;;;;;5083055;28;20048;-73
2022/01/04 00:16:12;;;;;;;17.45;5.80;;;8.30;99.90;;;;;;5067982;28;20055;-75
2022/01/04 00:18:39;;;;;;;11.73;5.05;;;8.40;99.90;;;;;;5094158;28;20098;-73
2022/01/04 00:21:05;;;;;;;19.85;5.95;;;8.40;99.90;;;;;;5079150;28;20044;-73
2022/01/04 00:23:31;;;;;;;10.38;4.93;;;8.40;99.90;;;;;;5083472;28;20094;-73
2022/01/04 00:25:58;;;;;;;13.48;6.20;;;8.40;99.90;;;;;;5078304;28;20044;-71
2022/01/04 00:28:24;;;;;;;15.35;5.95;;;8.40;99.90;;;;;;5081679;28;20051;-73
2022/01/04 00:30:50;;;;;;;13.60;6.03;;;8.40;99.90;;;;;;5088511;28;20032;-72
2022/01/04 00:33:17;;;;;;;13.65;5.35;;;8.40;99.90;;;;;;5104791;28;20032;-71
2022/01/04 00:35:43;;;;;;;16.85;7.40;;;8.40;99.90;;;;;;5081510;28;20036;-72
2022/01/04 00:38:09;;;;;;;15.35;5.53;;;8.40;99.90;;;;;;5092266;28;20048;-72
2022/01/04 00:40:35;;;;;;;14.73;6.68;;;8.40;99.90;;;;;;5095574;28;20058;-73
2022/01/04 00:43:02;;;;;;;13.43;6.32;;;8.40;99.90;;;;;;5078802;28;20037;-74
2022/01/04 00:45:32;;;;;;;12.10;5.55;;;8.40;99.90;;;;;;5077246;28;20040;-71
2022/01/04 00:50:30;;;;;;;15.07;6.03;;;8.30;99.90;;;;;;5064087;28;20825;-72
2022/01/04 00:52:57;;;;;;;14.60;5.78;;;8.30;99.90;;;;;;5070134;28;20449;-74
2022/01/04 00:55:22;;;;;;;15.70;6.57;;;8.40;99.90;;;;;;5086457;28;20121;-73
2022/01/04 00:57:48;;;;;;;15.65;6.28;;;8.30;99.90;;;;;;5077887;28;20071;-72
2022/01/04 01:00:16;;;;;;;17.67;6.47;;;8.30;99.90;;;;;;5083871;28;20074;-73
2022/01/04 01:02:43;;;;;;;15.93;6.45;;;8.30;99.90;;;;;;5063604;28;20052;-72
2022/01/04 01:05:09;;;;;;;16.40;6.60;;;8.30;99.90;;;;;;5079621;28;20056;-72
2022/01/04 01:07:35;;;;;;;11.93;6.18;;;8.30;99.90;;;;;;5094647;28;20269;-72
2022/01/04 01:12:29;;;;;;;16.30;6.63;;;8.30;99.90;;;;;;5085560;28;20108;-72
2022/01/04 01:14:55;;;;;;;16.73;6.40;;;8.30;99.90;;;;;;5077487;28;20079;-72
2022/01/04 01:17:21;;;;;;;18.65;7.45;;;8.30;99.90;;;;;;5078228;28;20044;-72
2022/01/04 01:19:46;;;;;;;16.02;6.90;;;8.30;99.90;;;;;;5062983;28;20048;-74
2022/01/04 01:22:12;;;;;;;16.27;7.07;;;8.40;99.90;;;;;;5071176;28;20618;-72
2022/01/04 01:24:38;;;;;;;16.42;6.70;;;8.30;99.90;;;;;;5077298;28;20040;-74
2022/01/04 01:27:04;;;;;;;18.45;6.90;;;8.30;99.90;;;;;;5080214;28;20050;-72
2022/01/04 01:29:29;;;;;;;17.70;6.68;;;8.30;99.90;;;;;;5062366;28;20044;-74
2022/01/04 01:31:55;;;;;;;15.40;7.10;;;8.30;99.90;;;;;;5057190;28;20043;-74
2022/01/04 01:34:21;;;;;;;17.15;7.32;;;8.30;99.90;;;;;;5085241;28;20036;-72
2022/01/04 01:36:46;;;;;;;20.08;7.95;;;8.30;99.90;;;;;;5059584;28;20426;-72
2022/01/04 01:39:12;;;;;;;14.48;7.05;;;8.30;99.90;;;;;;5072171;28;20044;-72
2022/01/04 01:41:39;;;;;;;19.73;8.02;;;8.20;99.90;;;;;;5063279;28;20123;-71
2022/01/04 01:44:04;;;;;;;20.40;8.32;;;8.20;99.90;;;;;;5095064;28;20075;-71
2022/01/04 01:46:30;;;;;;;20.05;8.85;;;8.20;99.90;;;;;;5053949;28;20048;-72
2022/01/04 01:48:56;;;;;;;19.15;7.63;;;8.20;99.90;;;;;;5069365;28;20094;-73
2022/01/04 01:51:26;;;;;;;15.85;7.13;;;8.10;99.90;;;;;;5076867;28;20052;-73
2022/01/04 01:53:52;;;;;;;18.20;7.85;;;8.10;99.90;;;;;;5069757;28;20050;-72
2022/01/04 01:56:18;;;;;;;14.05;7.68;;;8.10;99.90;;;;;;5076592;28;20044;-74
2022/01/04 01:58:43;;;;;;;14.73;7.10;;;8.10;99.90;;;;;;5090012;28;20106;-73
2022/01/04 02:01:11;;;;;;;21.30;8.10;;;8.10;99.90;;;;;;5053500;28;20044;-72
2022/01/04 02:03:38;;;;;;;18.25;8.15;;;8.10;99.90;;;;;;5060702;28;20059;-73
2022/01/04 02:06:04;;;;;;;15.65;7.72;;;8.10;99.90;;;;;;5077055;28;20091;-73
2022/01/04 02:08:30;;;;;;;17.67;7.72;;;8.10;99.90;;;;;;5101496;28;20048;-74
2022/01/04 02:10:58;;;;;;;15.90;7.25;;;8.10;99.90;;;;;;5088502;28;20040;-74
2022/01/04 02:13:25;;;;;;;14.90;8.02;;;8.10;99.90;;;;;;5092946;28;20095;-72
2022/01/04 02:15:52;;;;;;;17.95;8.40;;;8.10;99.90;;;;;;5096078;28;20043;-73
2022/01/04 02:18:18;;;;;;;16.92;7.68;;;8.00;99.90;;;;;;5062373;28;20059;-73
2022/01/04 02:20:43;;;;;;;23.98;8.60;;;8.00;99.90;;;;;;5066541;28;20044;-74
2022/01/04 02:23:09;;;;;;;18.35;8.80;;;8.00;99.90;;;;;;5046290;28;20079;-74
2022/01/04 02:25:35;;;;;;;20.30;9.10;;;8.00;99.90;;;;;;5090810;28;20059;-72
2022/01/04 02:28:01;;;;;;;18.42;8.70;;;8.10;99.90;;;;;;5079661;28;20036;-74
2022/01/04 02:30:27;;;;;;;17.85;8.40;;;8.10;99.90;;;;;;5062115;28;20533;-73
2022/01/04 02:32:53;;;;;;;17.92;8.05;;;8.10;99.90;;;;;;5074043;28;20044;-73
2022/01/04 02:35:23;;;;;;;16.65;7.97;;;8.10;99.90;;;;;;5081916;28;20053;-72
2022/01/04 02:37:49;;;;;;;16.33;7.82;;;8.00;99.90;;;;;;5068782;28;20051;-72
2022/01/04 02:40:15;;;;;;;22.67;9.90;;;8.00;99.90;;;;;;5076646;28;20123;-74
2022/01/04 02:42:42;;;;;;;22.58;9.82;;;8.00;99.90;;;;;;5064672;28;20047;-73
2022/01/04 02:45:08;;;;;;;20.20;9.20;;;7.90;99.90;;;;;;5096456;28;20040;-72
2022/01/04 02:47:34;;;;;;;21.63;9.35;;;7.90;99.90;;;;;;5085723;28;20198;-73
2022/01/04 02:50:00;;;;;;;21.73;10.27;;;7.80;99.90;;;;;;5073457;28;20500;-73
2022/01/04 02:52:27;;;;;;;20.23;9.73;;;7.70;99.90;;;;;;5089255;28;20415;-72
2022/01/04 02:54:53;;;;;;;23.83;9.90;;;7.70;99.90;;;;;;5098398;28;20076;-73
2022/01/04 02:57:19;;;;;;;23.63;10.77;;;7.70;99.90;;;;;;5076624;28;20040;-73
2022/01/04 02:59:45;;;;;;;22.05;10.10;;;7.70;99.90;;;;;;5080925;28;20059;-74
2022/01/04 03:02:10;;;;;;;18.77;9.23;;;7.60;99.90;;;;;;5049257;28;20063;-74
2022/01/04 03:04:36;;;;;;;20.77;11.07;;;7.60;99.90;;;;;;5085933;28;20111;-75
2022/01/04 03:07:03;;;;;;;21.98;9.73;;;7.50;99.90;;;;;;5091841;28;20039;-74
2022/01/04 03:09:30;;;;;;;22.55;9.80;;;7.60;99.90;;;;;;5105742;28;20044;-74
2022/01/04 03:11:56;;;;;;;23.20;10.07;;;7.60;99.90;;;;;;5064039;28;20037;-74
2022/01/04 03:14:23;;;;;;;20.52;10.10;;;7.60;99.90;;;;;;5074183;28;20112;-75
2022/01/04 03:16:48;;;;;;;22.00;12.07;;;7.50;99.90;;;;;;5072797;28;20059;-74
2022/01/04 03:19:14;;;;;;;23.77;11.00;;;7.50;99.90;;;;;;5079090;28;20079;-74
2022/01/04 03:21:43;;;;;;;25.73;11.52;;;7.50;99.90;;;;;;5058199;28;20040;-74
2022/01/04 03:24:12;;;;;;;23.38;11.80;;;7.40;99.90;;;;;;5079273;28;20095;-73
2022/01/04 03:26:38;;;;;;;27.88;13.43;;;7.40;99.90;;;;;;5063309;28;20044;-73
2022/01/04 03:29:06;;;;;;;22.02;11.32;;;7.40;99.90;;;;;;5113565;28;20044;-73
2022/01/04 03:31:32;;;;;;;25.85;11.25;;;7.40;99.90;;;;;;5088539;28;20271;-74
2022/01/04 03:33:58;;;;;;;23.67;12.43;;;7.40;99.90;;;;;;5067806;28;20070;-73
2022/01/04 03:36:24;;;;;;;25.33;10.93;;;7.30;99.90;;;;;;5064381;28;20127;-73
2022/01/04 03:38:55;;;;;;;26.60;11.80;;;7.40;99.90;;;;;;5070336;28;20102;-73
2022/01/04 03:41:22;;;;;;;24.17;11.48;;;7.30;99.90;;;;;;5095489;28;20545;-73
2022/01/04 03:43:49;;;;;;;23.67;11.25;;;7.40;99.90;;;;;;5079542;28;20045;-72
2022/01/04 03:46:15;;;;;;;23.42;12.60;;;7.40;99.90;;;;;;5062675;28;20053;-73
2022/01/04 03:48:41;;;;;;;28.80;11.95;;;7.40;99.90;;;;;;5054013;28;20048;-73
2022/01/04 03:51:07;;;;;;;33.45;13.57;;;7.40;99.90;;;;;;5083089;28;20044;-74
2022/01/04 03:53:34;;;;;;;31.95;13.88;;;7.50;99.90;;;;;;5067906;28;20050;-72
2022/01/04 03:56:00;;;;;;;30.05;14.50;;;7.50;99.90;;;;;;5080782;28;20047;-74
2022/01/04 03:58:26;;;;;;;28.65;12.52;;;7.50;99.90;;;;;;5068178;28;20045;-74
2022/01/04 04:00:51;;;;;;;32.53;12.60;;;7.60;99.90;;;;;;5062423;28;20094;-74
2022/01/04 04:03:18;;;;;;;29.63;12.98;;;7.60;99.90;;;;;;5083425;28;20101;-74
2022/01/04 04:05:44;;;;;;;29.50;12.48;;;7.60;99.90;;;;;;5078827;28;20044;-74
2022/01/04 04:08:10;;;;;;;25.88;12.45;;;7.70;99.90;;;;;;5088450;28;20044;-74
2022/01/04 04:10:36;;;;;;;23.02;12.48;;;7.70;99.90;;;;;;5065384;28;20036;-73
2022/01/04 04:13:03;;;;;;;23.98;12.40;;;7.70;99.90;;;;;;5071938;28;20041;-73
2022/01/04 04:15:29;;;;;;;32.97;14.35;;;7.70;99.90;;;;;;5061298;28;20052;-73
2022/01/04 04:17:55;;;;;;;29.25;13.27;;;7.70;99.90;;;;;;5078848;28;20538;-74
2022/01/04 04:20:21;;;;;;;31.77;13.85;;;7.70;99.90;;;;;;5077914;28;20056;-74
2022/01/04 04:22:47;;;;;;;29.20;12.98;;;7.70;99.90;;;;;;5065536;28;20044;-74
2022/01/04 04:25:13;;;;;;;30.13;12.05;;;7.70;99.90;;;;;;5069424;28;20044;-72
2022/01/04 04:27:38;;;;;;;24.33;12.68;;;7.70;99.90;;;;;;5076593;28;20048;-73
2022/01/04 04:30:05;;;;;;;31.67;13.85;;;7.70;99.90;;;;;;5079031;28;20052;-74
2022/01/04 04:32:31;;;;;;;26.70;12.40;;;7.70;99.90;;;;;;5067572;28;20068;-74
2022/01/04 04:34:57;;;;;;;27.02;14.13;;;7.70;99.90;;;;;;5046271;28;20045;-75
2022/01/04 04:37:23;;;;;;;29.88;14.90;;;7.70;99.90;;;;;;5063744;28;20072;-73
2022/01/04 04:39:49;;;;;;;28.60;13.70;;;7.70;99.90;;;;;;5067144;28;20048;-73
2022/01/04 04:42:15;;;;;;;35.72;14.73;;;7.70;99.90;;;;;;5062853;28;20043;-74
2022/01/04 04:44:43;;;;;;;31.13;13.70;;;7.70;99.90;;;;;;5061226;28;20102;-74
2022/01/04 04:47:09;;;;;;;32.17;13.20;;;7.70;99.90;;;;;;5060758;28;20044;-73
2022/01/04 04:49:35;;;;;;;27.95;12.73;;;7.70;99.90;;;;;;5074030;28;20054;-74
2022/01/04 04:52:01;;;;;;;29.60;13.90;;;7.70;99.90;;;;;;5063702;28;20044;-72
2022/01/04 04:54:27;;;;;;;27.83;13.45;;;7.40;99.90;;;;;;5083482;28;20082;-74
2022/01/04 04:56:53;;;;;;;28.67;11.48;;;7.60;99.90;;;;;;5064935;28;20067;-74
2022/01/04 04:59:18;;;;;;;25.73;12.30;;;7.70;99.90;;;;;;5086142;28;20590;-74
2022/01/04 05:01:44;;;;;;;29.08;13.82;;;7.70;99.90;;;;;;5048546;28;20067;-74
2022/01/04 05:04:10;;;;;;;26.63;12.50;;;7.70;99.90;;;;;;5062074;28;20112;-74
2022/01/04 05:06:36;;;;;;;23.70;12.00;;;7.70;99.90;;;;;;5074130;28;20123;-74
2022/01/04 05:09:02;;;;;;;33.08;14.50;;;7.70;99.90;;;;;;5098073;28;20040;-73
2022/01/04 05:11:27;;;;;;;30.98;13.85;;;7.70;99.90;;;;;;5064056;28;20043;-72
2022/01/04 05:13:53;;;;;;;26.13;12.60;;;7.60;99.90;;;;;;5064325;28;20036;-73
2022/01/04 05:16:19;;;;;;;29.27;13.90;;;7.60;99.90;;;;;;5077277;28;20303;-73
2022/01/04 05:18:44;;;;;;;29.67;14.95;;;7.60;99.90;;;;;;5067369;28;20070;-73
2022/01/04 05:21:10;;;;;;;30.55;12.48;;;7.60;99.90;;;;;;5060806;28;20052;-74
2022/01/04 05:23:36;;;;;;;25.15;11.57;;;7.60;99.90;;;;;;5089776;28;20044;-72
2022/01/04 05:26:02;;;;;;;30.70;13.35;;;7.60;99.90;;;;;;5047334;28;20044;-74
2022/01/04 05:28:28;;;;;;;29.27;12.93;;;7.70;99.90;;;;;;5080871;28;20048;-72
2022/01/04 05:30:54;;;;;;;24.23;11.95;;;7.70;99.90;;;;;;5064458;28;20093;-73
2022/01/04 05:33:20;;;;;;;25.17;13.00;;;7.70;99.90;;;;;;5073735;28;20527;-73
2022/01/04 05:35:47;;;;;;;21.85;11.95;;;7.70;99.90;;;;;;5076822;28;20037;-73
2022/01/04 05:38:13;;;;;;;26.80;12.95;;;7.70;99.90;;;;;;5067194;28;20086;-73
2022/01/04 05:40:39;;;;;;;28.35;12.52;;;7.70;99.90;;;;;;5087766;28;20404;-74
2022/01/04 05:43:05;;;;;;;23.42;11.45;;;7.70;99.90;;;;;;5071393;28;20185;-74
2022/01/04 05:45:31;;;;;;;24.17;11.80;;;7.70;99.90;;;;;;5078371;28;20052;-74
2022/01/04 05:47:57;;;;;;;25.67;11.88;;;7.70;99.90;;;;;;5069403;28;20039;-72
2022/01/04 05:50:23;;;;;;;21.35;10.63;;;7.70;99.90;;;;;;5067114;28;20103;-73
2022/01/04 05:52:49;;;;;;;23.25;11.43;;;7.70;99.90;;;;;;5072834;28;20044;-74
2022/01/04 05:55:14;;;;;;;23.65;13.32;;;7.70;99.90;;;;;;5054411;28;20047;-72
2022/01/04 05:57:40;;;;;;;23.20;10.32;;;7.70;99.90;;;;;;5080250;28;20047;-73
2022/01/04 06:00:08;;;;;;;21.95;10.70;;;7.70;99.90;;;;;;5064097;28;20040;-74
2022/01/04 06:02:34;;;;;;;21.80;11.48;;;7.70;99.90;;;;;;5079501;28;20633;-74
2022/01/04 06:04:59;;;;;;;23.75;12.18;;;7.70;99.90;;;;;;5091580;28;20052;-74
2022/01/04 06:07:25;;;;;;;24.55;11.52;;;7.60;99.90;;;;;;5085729;28;20087;-72
2022/01/04 06:09:53;;;;;;;24.80;10.80;;;7.60;99.90;;;;;;5111257;28;20449;-72
2022/01/04 06:15:02;;;;;;;27.50;14.05;;;7.60;99.90;;;;;;5071770;28;20039;-74
2022/01/04 06:17:30;;;;;;;23.27;10.95;;;7.60;99.90;;;;;;5080666;28;20517;-73
2022/01/04 06:19:55;;;;;;;24.90;12.43;;;7.70;99.90;;;;;;5064633;28;20048;-71
2022/01/04 06:22:23;;;;;;;25.20;12.02;;;7.70;99.90;;;;;;5097060;28;20037;-73
2022/01/04 06:24:48;;;;;;;26.27;13.35;;;7.60;99.90;;;;;;5092432;28;20475;-72
2022/01/04 06:27:14;;;;;;;25.75;12.13;;;7.70;99.90;;;;;;5076702;28;20083;-73
2022/01/04 06:29:41;;;;;;;27.55;12.25;;;7.70;99.90;;;;;;5060359;28;20127;-72
2022/01/04 06:32:09;;;;;;;28.30;12.32;;;7.60;99.90;;;;;;5082874;28;20063;-73
2022/01/04 06:34:35;;;;;;;26.45;12.95;;;7.60;99.90;;;;;;5053460;28;20048;-75
2022/01/04 06:37:01;;;;;;;29.85;13.30;;;7.70;99.90;;;;;;5080611;28;20048;-73
2022/01/04 06:39:27;;;;;;;26.73;13.48;;;7.70;99.90;;;;;;5067785;28;20541;-73
2022/01/04 06:41:53;;;;;;;23.67;11.25;;;7.70;99.90;;;;;;5067026;28;20041;-72
2022/01/04 06:44:19;;;;;;;25.33;11.98;;;7.80;99.90;;;;;;5070963;28;20051;-73
2022/01/04 06:46:45;;;;;;;22.38;10.85;;;7.70;99.90;;;;;;5083898;28;20046;-71
2022/01/04 06:49:16;;;;;;;26.88;11.65;;;7.80;99.90;;;;;;5066675;28;20141;-72
2022/01/04 06:51:43;;;;;;;25.88;12.88;;;7.70;99.90;;;;;;5065492;28;20077;-71
2022/01/04 06:54:10;;;;;;;25.23;12.00;;;7.80;99.90;;;;;;5080405;28;20048;-73
2022/01/04 06:56:36;;;;;;;24.92;12.43;;;7.70;99.90;;;;;;5053608;28;20040;-72
2022/01/04 06:59:03;;;;;;;35.42;13.25;;;7.70;99.90;;;;;;5102158;28;20474;-72
2022/01/04 07:01:29;;;;;;;25.10;11.90;;;7.70;99.90;;;;;;5101686;28;20048;-72
2022/01/04 07:03:55;;;;;;;27.13;12.70;;;7.70;99.90;;;;;;5066445;28;20061;-72
2022/01/04 07:06:21;;;;;;;28.23;12.50;;;8.10;99.90;;;;;;5084595;28;20044;-72
2022/01/04 07:08:47;;;;;;;24.70;12.45;;;7.80;99.90;;;;;;5102188;28;20052;-72
2022/01/04 07:11:13;;;;;;;28.08;12.77;;;7.70;99.90;;;;;;5099718;28;20051;-71
2022/01/04 07:13:39;;;;;;;27.08;13.90;;;7.70;99.90;;;;;;5086025;28;20055;-72
2022/01/04 07:16:05;;;;;;;27.95;14.13;;;7.80;99.90;;;;;;5046874;28;20131;-71
2022/01/04 07:18:31;;;;;;;27.92;12.93;;;7.70;99.90;;;;;;5065290;28;20067;-72
2022/01/04 07:20:57;;;;;;;30.10;13.13;;;7.70;99.90;;;;;;5062890;28;20511;-73
2022/01/04 07:23:23;;;;;;;28.75;13.75;;;7.70;99.90;;;;;;5049752;28;20079;-72
2022/01/04 07:25:49;;;;;;;26.38;13.35;;;7.70;99.90;;;;;;5080231;28;20141;-71
2022/01/04 07:28:15;;;;;;;29.77;13.98;;;7.70;99.90;;;;;;5062786;28;20074;-73
2022/01/04 07:30:41;;;;;;;30.20;13.40;;;7.70;99.90;;;;;;5047016;28;20048;-75
2022/01/04 07:33:07;;;;;;;29.13;15.38;;;7.70;99.90;;;;;;5086218;28;20118;-75
2022/01/04 07:35:32;;;;;;;31.20;14.25;;;7.60;99.90;;;;;;5088477;28;20043;-72
2022/01/04 07:37:59;;;;;;;30.90;13.75;;;7.70;99.90;;;;;;5066615;28;20147;-73
2022/01/04 07:40:24;;;;;;;34.60;16.48;;;7.60;99.90;;;;;;5082972;28;20047;-74
2022/01/04 07:42:50;;;;;;;28.58;13.77;;;7.60;99.90;;;;;;5080250;28;20060;-72
2022/01/04 07:45:16;;;;;;;29.83;15.38;;;7.60;99.90;;;;;;5074232;28;20055;-74
2022/01/04 07:47:42;;;;;;;28.55;13.50;;;7.60;99.90;;;;;;5100157;28;20127;-70
2022/01/04 07:50:09;;;;;;;32.45;14.68;;;7.60;99.90;;;;;;5048858;28;20445;-70
2022/01/04 07:52:35;;;;;;;31.67;15.05;;;7.60;99.90;;;;;;5100993;28;20046;-71
2022/01/04 07:55:03;;;;;;;29.85;14.35;;;7.60;99.90;;;;;;5090737;28;20096;-72
2022/01/04 07:57:29;;;;;;;35.42;15.55;;;7.50;99.90;;;;;;5082303;28;20429;-74
2022/01/04 07:59:54;;;;;;;31.85;16.80;;;7.60;99.90;;;;;;5066801;28;20499;-73
2022/01/04 08:02:20;;;;;;;36.25;16.55;;;7.60;99.90;;;;;;5061059;28;20087;-73
2022/01/04 08:04:46;;;;;;;35.05;14.70;;;7.60;99.90;;;;;;5083032;28;20053;-73
2022/01/04 08:07:11;;;;;;;28.90;14.45;;;7.60;99.90;;;;;;5084111;28;20075;-73
2022/01/04 08:09:37;;;;;;;33.33;15.15;;;7.60;99.90;;;;;;5079096;28;20043;-73
2022/01/04 08:12:04;;;;;;;30.98;15.23;;;7.50;99.90;;;;;;5079091;28;20052;-71
2022/01/04 08:14:30;;;;;;;37.72;15.45;;;7.50;99.90;;;;;;5085495;28;20133;-71
2022/01/04 08:16:55;;;;;;;38.10;17.23;;;7.50;99.90;;;;;;5079868;28;20040;-70
2022/01/04 08:19:21;;;;;;;36.97;14.77;;;7.50;99.90;;;;;;5088697;28;20510;-73
2022/01/04 08:21:47;;;;;;;32.42;15.40;;;7.50;99.90;;;;;;5091881;28;20072;-73
2022/01/04 08:24:13;;;;;;;35.03;14.93;;;7.50;99.90;;;;;;5081505;28;20515;-71
2022/01/04 08:26:39;;;;;;;38.95;16.38;;;7.60;99.90;;;;;;5080059;28;20109;-72
2022/01/04 08:29:05;;;;;;;32.72;15.40;;;7.50;99.90;;;;;;5079409;28;20045;-72
2022/01/04 08:31:30;;;;;;;39.28;16.48;;;7.50;99.90;;;;;;5090843;28;20487;-70
2022/01/04 08:33:57;;;;;;;36.25;14.90;;;7.50;99.90;;;;;;5071427;28;20432;-70
2022/01/04 08:36:26;;;;;;;35.30;15.45;;;7.50;99.90;;;;;;5094176;28;20103;-71
2022/01/04 08:38:52;;;;;;;34.15;16.45;;;7.50;99.90;;;;;;5077718;28;20123;-71
2022/01/04 08:41:18;;;;;;;31.45;15.98;;;7.50;99.90;;;;;;5072722;28;20086;-72
2022/01/04 08:43:43;;;;;;;32.42;15.15;;;7.50;99.90;;;;;;5065741;28;20051;-70
2022/01/04 08:46:09;;;;;;;35.03;16.27;;;7.50;99.90;;;;;;5072389;28;20416;-71
2022/01/04 08:48:35;;;;;;;33.65;15.90;;;7.50;99.90;;;;;;5084210;28;20049;-70
2022/01/04 08:51:01;;;;;;;34.85;15.38;;;7.50;99.90;;;;;;5079283;28;20040;-73
2022/01/04 08:53:26;;;;;;;34.20;15.02;;;7.50;99.90;;;;;;5057463;28;20442;-72
2022/01/04 08:55:52;;;;;;;30.80;14.20;;;7.50;99.90;;;;;;5094927;28;20070;-72
2022/01/04 08:58:18;;;;;;;30.90;14.25;;;7.60;99.90;;;;;;5099110;28;20036;-71
2022/01/04 09:00:44;;;;;;;27.08;13.88;;;7.60;99.90;;;;;;5088687;28;20043;-72
2022/01/04 09:03:10;;;;;;;32.58;14.30;;;7.50;99.90;;;;;;5074497;28;20063;-73
2022/01/04 09:05:35;;;;;;;25.17;13.05;;;7.60;99.90;;;;;;5060882;28;20036;-73
2022/01/04 09:08:01;;;;;;;30.05;14.07;;;7.60;99.90;;;;;;5062745;28;20055;-71
2022/01/04 09:10:27;;;;;;;30.67;14.68;;;7.60;99.90;;;;;;5071528;28;20044;-71
2022/01/04 09:15:45;;;;;;;34.00;14.68;;;7.50;99.90;;;;;;5077039;28;20040;-70
2022/01/04 09:20:55;;;;;;;27.90;12.88;;;7.50;99.90;;;;;;5066750;28;20048;-73
2022/01/04 09:23:24;;;;;;;31.05;14.00;;;7.50;99.90;;;;;;5075985;28;20079;-71
2022/01/04 09:25:52;;;;;;;31.33;13.55;;;7.60;99.90;;;;;;5083707;28;20131;-72
2022/01/04 09:28:19;;;;;;;27.77;12.88;;;7.60;99.90;;;;;;5092369;28;20048;-70
2022/01/04 09:30:48;;;;;;;26.73;13.57;;;7.50;99.90;;;;;;5063857;28;20537;-70
2022/01/04 09:33:14;;;;;;;28.40;14.68;;;7.60;99.90;;;;;;5113931;28;20050;-71
2022/01/04 09:35:41;;;;;;;34.55;14.02;;;7.60;99.90;;;;;;5058673;28;20074;-71
2022/01/04 09:38:07;;;;;;;32.70;13.45;;;7.50;99.90;;;;;;5077460;28;20045;-71
2022/01/04 09:40:35;;;;;;;30.23;12.32;;;7.50;99.90;;;;;;5077451;28;20072;-70
2022/01/04 09:43:04;;;;;;;19.90;10.02;;;7.50;99.90;;;;;;5077882;28;20032;-70
2022/01/04 09:45:31;;;;;;;19.40;7.25;;;7.50;99.90;;;;;;5090665;28;20048;-70
2022/01/04 09:47:56;;;;;;;18.38;7.03;;;7.40;99.90;;;;;;5079507;28;20049;-70
2022/01/04 09:50:22;;;;;;;16.13;5.53;;;7.30;99.90;;;;;;5083790;28;20062;-70
2022/01/04 09:52:49;;;;;;;11.00;3.97;;;7.20;99.90;;;;;;5075411;28;20478;-71
2022/01/04 09:55:16;;;;;;;10.90;4.43;;;7.10;99.90;;;;;;5081695;28;20066;-72
2022/01/04 09:57:43;;;;;;;13.35;6.25;;;6.90;99.90;;;;;;5080990;28;20119;-70
2022/01/04 10:00:14;;;;;;;17.27;8.70;;;6.90;99.90;;;;;;5077213;28;20052;-70
2022/01/04 10:02:44;;;;;;;19.33;9.55;;;6.90;99.90;;;;;;5077705;28;20041;-70
2022/01/04 10:05:16;;;;;;;21.02;8.82;;;6.90;99.90;;;;;;5080717;28;20048;-69
2022/01/04 10:07:43;;;;;;;16.05;7.93;;;7.00;99.90;;;;;;5084024;28;20037;-70
2022/01/04 10:10:13;;;;;;;16.98;8.20;;;7.00;99.90;;;;;;5080173;28;20129;-70
2022/01/04 10:13:01;;;;;;;16.20;7.47;;;7.00;99.90;;;;;;5081106;28;20128;-70
2022/01/04 10:15:45;;;;;;;14.13;5.20;;;7.00;99.90;;;;;;5084040;28;20123;-69
2022/01/04 10:18:13;;;;;;;11.98;5.38;;;7.00;99.90;;;;;;5087926;28;20040;-69
2022/01/04 10:20:47;;;;;;;10.48;4.70;;;7.00;99.90;;;;;;5084700;28;20044;-69
2022/01/04 10:23:16;;;;;;;6.20;3.30;;;7.00;99.90;;;;;;5086615;28;20036;-70
2022/01/04 10:25:42;;;;;;;9.55;3.47;;;6.90;99.90;;;;;;5091343;28;20111;-69
2022/01/04 10:28:09;;;;;;;7.45;3.03;;;6.90;99.90;;;;;;5097331;28;20071;-69
2022/01/04 10:30:38;;;;;;;8.23;3.60;;;6.90;99.90;;;;;;5092289;28;20040;-69
2022/01/04 10:33:11;;;;;;;8.35;3.33;;;6.90;99.90;;;;;;5085711;28;20052;-69
2022/01/04 10:35:42;;;;;;;7.45;3.42;;;6.90;99.90;;;;;;5091264;28;20044;-69
2022/01/04 10:38:17;;;;;;;8.85;3.58;;;6.90;99.90;;;;;;5096625;28;20071;-70
2022/01/04 10:40:51;;;;;;;8.07;3.22;;;6.90;99.90;;;;;;5096590;28;20095;-69
2022/01/04 10:43:21;;;;;;;11.00;3.90;;;6.90;99.90;;;;;;5098413;28;20465;-70
2022/01/04 10:45:48;;;;;;;11.07;4.55;;;7.00;99.90;;;;;;5098188;28;20046;-70
2022/01/04 10:48:20;;;;;;;10.40;4.50;;;6.90;99.90;;;;;;5097002;28;20403;-70
2022/01/04 10:51:05;;;;;;;10.27;4.40;;;6.90;99.90;;;;;;5098300;28;20055;-70
2022/01/04 10:53:37;;;;;;;10.18;3.67;;;6.90;99.90;;;;;;5096326;28;20056;-70
2022/01/04 10:56:07;;;;;;;6.88;2.92;;;6.90;99.90;;;;;;5098536;28;20117;-70
2022/01/04 10:58:45;;;;;;;6.88;2.90;;;6.90;99.90;;;;;;5097933;28;20071;-70
2022/01/04 11:01:13;;;;;;;6.97;2.67;;;6.70;99.90;;;;;;5098103;28;20103;-70
2022/01/04 11:03:43;;;;;;;9.23;3.20;;;6.80;99.90;;;;;;5097804;28;20052;-71
2022/01/04 11:06:15;;;;;;;5.30;2.25;;;6.70;99.90;;;;;;5097667;28;20048;-71
2022/01/04 11:08:42;;;;;;;6.55;1.92;;;6.60;99.90;;;;;;5096390;28;20062;-71
2022/01/04 11:11:08;;;;;;;7.85;1.80;;;6.60;99.90;;;;;;5095724;28;20047;-71
2022/01/04 11:13:34;;;;;;;4.05;1.23;;;6.60;99.90;;;;;;5097831;28;20047;-71
2022/01/04 11:16:01;;;;;;;2.90;1.17;;;6.60;99.90;;;;;;5079834;28;20040;-71
2022/01/04 11:18:28;;;;;;;3.42;1.17;;;6.50;99.90;;;;;;5095673;28;20048;-71
2022/01/04 11:20:54;;;;;;;6.47;1.05;;;6.50;99.90;;;;;;5097052;28;20047;-71
2022/01/04 11:23:32;;;;;;;3.50;0.98;;;6.40;99.90;;;;;;5096269;28;20048;-71
2022/01/04 11:25:59;;;;;;;2.47;0.93;;;6.40;99.90;;;;;;5101640;28;20488;-71
2022/01/04 11:28:26;;;;;;;4.35;0.85;;;6.30;99.90;;;;;;5101482;28;20493;-71
2022/01/04 11:31:13;;;;;;;5.88;1.10;;;6.30;99.90;;;;;;5100141;28;20047;-71
2022/01/04 11:33:56;;;;;;;2.65;0.93;;;6.30;99.90;;;;;;5081002;28;20044;-70
2022/01/04 11:36:24;;;;;;;6.38;1.08;;;6.30;99.90;;;;;;5080783;28;20045;-70
2022/01/04 11:38:50;;;;;;;4.05;1.00;;;6.00;99.90;;;;;;5079913;28;20040;-70
2022/01/04 11:41:42;;;;;;;4.00;1.30;;;6.40;99.90;;;;;;5080385;28;20055;-70
2022/01/04 11:44:23;;;;;;;4.35;1.20;;;6.50;99.90;;;;;;5080788;28;20114;-70
2022/01/04 11:47:08;;;;;;;3.65;1.17;;;6.50;99.90;;;;;;5079101;28;20064;-70
2022/01/04 11:49:37;;;;;;;4.25;1.10;;;6.50;99.90;;;;;;5080274;28;20098;-70
2022/01/04 11:52:05;;;;;;;2.45;1.08;;;6.50;99.90;;;;;;5080068;28;20047;-71
2022/01/04 11:54:32;;;;;;;2.15;0.93;;;6.40;99.90;;;;;;5080404;28;20454;-70
2022/01/04 11:57:02;;;;;;;4.55;1.10;;;6.30;99.90;;;;;;5080744;28;20053;-70
2022/01/04 11:59:40;;;;;;;2.63;1.17;;;6.20;99.90;;;;;;5080804;28;20044;-70
2022/01/04 12:02:40;;;;;;;3.53;1.00;;;6.10;99.90;;;;;;5079506;28;20100;-70
2022/01/04 12:05:24;;;;;;;3.25;1.00;;;5.90;99.90;;;;;;5064475;28;20257;-70
2022/01/04 12:07:51;;;;;;;4.10;0.90;;;5.80;99.90;;;;;;5089605;28;20136;-70
2022/01/04 12:10:20;;;;;;;2.25;0.77;;;5.70;99.90;;;;;;5082987;28;20040;-70
2022/01/04 12:13:19;;;;;;;3.08;0.80;;;5.70;99.90;;;;;;5099643;28;20052;-70
2022/01/04 12:15:51;;;;;;;3.33;0.88;;;5.70;99.90;;;;;;5060425;28;20130;-70
2022/01/04 12:18:23;;;;;;;1.73;0.85;;;5.70;99.90;;;;;;5080324;28;20032;-70
2022/01/04 12:20:57;;;;;;;2.03;0.70;;;5.60;99.90;;;;;;5080140;28;20098;-70
2022/01/04 12:23:26;;;;;;;2.92;1.05;;;5.60;99.90;;;;;;5079247;28;20044;-70
2022/01/04 12:26:08;;;;;;;3.30;0.80;;;5.60;99.90;;;;;;5080518;28;20554;-70
2022/01/04 12:28:56;;;;;;;4.55;0.80;;;5.70;99.90;;;;;;5080136;28;20052;-70
2022/01/04 12:31:24;;;;;;;1.52;0.57;;;5.60;99.90;;;;;;5073036;28;20149;-70
2022/01/04 12:33:58;;;;;;;2.92;0.70;;;5.70;99.90;;;;;;5100376;28;20089;-70
2022/01/04 12:36:29;;;;;;;5.03;1.00;;;5.70;99.90;;;;;;5099376;28;20036;-70
2022/01/04 12:38:57;;;;;;;3.55;1.08;;;5.70;99.90;;;;;;5098858;28;20074;-70
2022/01/04 12:41:23;;;;;;;2.95;1.10;;;5.60;99.90;;;;;;5099582;28;20052;-70
2022/01/04 12:43:50;;;;;;;4.28;1.10;;;5.70;99.90;;;;;;5099653;28;20044;-70
2022/01/04 12:46:30;;;;;;;1.90;0.85;;;5.70;99.90;;;;;;5081420;28;20051;-70
2022/01/04 12:49:01;;;;;;;2.00;1.00;;;5.70;99.90;;;;;;5099417;28;20565;-70
2022/01/04 12:51:32;;;;;;;1.83;1.02;;;5.70;99.90;;;;;;5098844;28;20044;-69
2022/01/04 12:54:00;;;;;;;1.20;0.60;;;5.60;99.90;;;;;;5099093;28;20040;-69
2022/01/04 12:56:27;;;;;;;2.10;0.55;;;5.50;99.90;;;;;;5099874;28;20036;-68
2022/01/04 12:58:53;;;;;;;3.05;1.02;;;5.30;99.90;;;;;;5099786;28;20055;-69